Four Emerald — 9HA4675 — position and weather

sailwx.info

Track history (hours):
 
Tides and Currents Weather Stations Pressure Air Temp Water Temp Dewpoint Dewpoint Depression Visibility Wind Speed Wind Dir Waves Ship Positions

Four Emerald

Last reported at 2018-Jan-31 22:03 UTC. Time now 2018-Feb-21 11:50 UTC.
Position N 48°25' W 125°20'.
Warning: this ship's position is 20 days out of date.

Length 180 m; draft 10.2 m.

Type: Cargo ship. MMSI: 248502000.

Date/timePositionNaut miles runAvg speedWind from/ knotsBaromVisibWave heightAir tempDewpointWater temp
2018-Jan-31 22:03N 48°25' W 125°20'10 9.2
2018-Jan-31 20:59N 48°31' W 125°07'510.0
2018-Jan-31 20:30N 48°31' W 124°60'5 9.4
2018-Jan-31 20:00N 48°31' W 124°53'510.0
2018-Jan-31 19:31N 48°31' W 124°45'5 9.8
2018-Jan-31 19:00N 48°29' W 124°38'510.8
2018-Jan-31 18:30N 48°27' W 124°31'611.3
2018-Jan-31 18:00N 48°25' W 124°23'611.6
2018-Jan-31 17:30N 48°23' W 124°15'612.0
2018-Jan-31 16:59N 48°20' W 124°06'612.1
2018-Jan-31 16:30N 48°18' W 123°58'613.0
2018-Jan-31 16:00N 48°17' W 123°48'612.7
2018-Jan-31 15:30N 48°16' W 123°39'612.7
2018-Jan-31 15:00N 48°14' W 123°30'610.9
2018-Jan-31 14:29N 48°10' W 123°24'3 1.8
2018-Jan-31 12:58N 48°08' W 123°26'0 0.0
2018-Jan-31 12:25N 48°08' W 123°26'0 0.1
2018-Jan-31 11:55N 48°08' W 123°26'0 0.0
2018-Jan-31 11:28N 48°08' W 123°26'0 0.0
2018-Jan-31 10:58N 48°08' W 123°26'0 0.0
2018-Jan-31 10:28N 48°08' W 123°26'0 0.0
2018-Jan-31 09:58N 48°08' W 123°26'0 0.1
2018-Jan-31 09:28N 48°08' W 123°26'0 0.0
2018-Jan-31 08:58N 48°08' W 123°26'0 0.0
2018-Jan-31 08:28N 48°08' W 123°26'0 0.0
2018-Jan-31 07:52N 48°08' W 123°26'0 0.1
2018-Jan-31 07:28N 48°08' W 123°26'0 0.0
2018-Jan-31 06:55N 48°08' W 123°26'0 0.1
2018-Jan-31 06:28N 48°08' W 123°26'0 0.0
2018-Jan-31 05:58N 48°08' W 123°26'0 0.0
2018-Jan-31 05:25N 48°08' W 123°26'0 0.1
2018-Jan-31 04:49N 48°08' W 123°26'0 0.0
2018-Jan-30 15:40N 48°08' W 123°26'0 0.1
2018-Jan-30 15:16N 48°08' W 123°26'0 0.0
2018-Jan-30 14:58N 48°08' W 123°26'0 0.1
2018-Jan-30 14:28N 48°08' W 123°26'0 0.0
2018-Jan-30 13:25N 48°08' W 123°26'0 0.1
2018-Jan-30 12:58N 48°08' W 123°26'0 0.1
2018-Jan-30 12:28N 48°08' W 123°26'0 0.0
2018-Jan-30 11:55N 48°08' W 123°26'0 0.1
2018-Jan-30 11:22N 48°08' W 123°26'2 2.9
2018-Jan-30 10:30N 48°09' W 123°22'9 9.0
2018-Jan-30 09:30N 48°13' W 123°34'714.2
2018-Jan-30 09:00N 48°13' W 123°45'714.2
2018-Jan-30 08:29N 48°14' W 123°56'713.7
2018-Jan-30 08:00N 48°16' W 124°05'713.4
2018-Jan-30 07:30N 48°19' W 124°14'713.2
2018-Jan-30 07:00N 48°22' W 124°23'612.8
2018-Jan-30 06:30N 48°25' W 124°32'611.8
2018-Jan-30 06:00N 48°27' W 124°40'511.0
2018-Jan-30 05:30N 48°29' W 124°48'510.0
2018-Jan-30 05:00N 48°29' W 124°55'5 9.5
2018-Jan-30 04:30N 48°26' W 125°02'510.8
2018-Jan-30 04:00N 48°21' W 125°05'611.0
2018-Jan-30 03:25N 48°15' W 125°09'511.3
2018-Jan-30 03:00N 48°11' W 125°11'611.4
2018-Jan-30 02:29N 48°06' W 125°14'6910.2
2018-Jan-29 19:42N 46°57' W 124°57'211.1
2018-Jan-29 19:30N 46°55' W 124°56'610.8
2018-Jan-29 18:55N 46°50' W 124°51'410.8
2018-Jan-29 18:30N 46°46' W 124°48'511.0
2018-Jan-29 18:00N 46°41' W 124°43'711.0
2018-Jan-29 17:22N 46°36' W 124°38'411.0
2018-Jan-29 17:00N 46°32' W 124°34'511.0
2018-Jan-29 16:30N 46°28' W 124°29'611.3
2018-Jan-29 16:00N 46°23' W 124°25'510.7
2018-Jan-29 15:30N 46°19' W 124°20'611.0
2018-Jan-29 15:00N 46°15' W 124°15'510.1
2018-Jan-29 14:30N 46°12' W 124°09'3 6.5
2018-Jan-29 14:00N 46°14' W 124°06'5 9.5
2018-Jan-29 13:30N 46°14' W 123°60'611.9
2018-Jan-29 13:00N 46°12' W 123°52'510.1
2018-Jan-29 12:30N 46°13' W 123°45'713.5
2018-Jan-29 12:00N 46°15' W 123°36'612.6
2018-Jan-29 11:31N 46°15' W 123°27'612.6
2018-Jan-29 11:00N 46°09' W 123°24'713.1
2018-Jan-29 10:31N 46°10' W 123°14'612.4
2018-Jan-29 10:00N 46°10' W 123°05'713.4
2018-Jan-29 09:30N 46°06' W 122°58'710.6
2018-Jan-29 08:50N 46°01' W 122°51'412.5
2018-Jan-29 08:31N 45°57' W 122°48'713.6
2018-Jan-29 08:00N 45°50' W 122°47'713.2
2018-Jan-29 07:31N 45°44' W 122°46'611.1
2018-Jan-29 07:00N 45°38' W 122°47'2 3.5
2018-Jan-29 06:22N 45°36' W 122°47'0 0.0
2018-Jan-29 05:52N 45°36' W 122°47'0 0.0
2018-Jan-29 05:28N 45°36' W 122°47'0 0.0
2018-Jan-29 04:58N 45°36' W 122°47'0 0.0
2018-Jan-29 04:04N 45°36' W 122°47'0 0.0
2018-Jan-29 03:58N 45°36' W 122°47'0 0.1
2018-Jan-29 03:22N 45°36' W 122°46'0 0.0
2018-Jan-29 02:49N 45°36' W 122°46'0 0.0
2018-Jan-29 02:31N 45°36' W 122°46'0 0.0
2018-Jan-29 01:52N 45°36' W 122°46'0 0.0
2018-Jan-29 01:25N 45°36' W 122°46'0 0.0
2018-Jan-29 00:46N 45°36' W 122°46'0 0.0
2018-Jan-29 00:25N 45°36' W 122°46'0 0.0
2018-Jan-28 23:58N 45°36' W 122°46'0 0.0
2018-Jan-28 23:04N 45°36' W 122°47'0 0.0
2018-Jan-28 22:58N 45°36' W 122°47'0 0.0
2018-Jan-28 22:25N 45°36' W 122°47'0 0.0
2018-Jan-28 21:55N 45°36' W 122°47'0 0.0
2018-Jan-28 21:19N 45°36' W 122°47'0 0.0
2018-Jan-28 20:40N 45°36' W 122°47'0 0.0
2018-Jan-28 20:28N 45°36' W 122°47'0 0.0
2018-Jan-28 19:58N 45°36' W 122°47'0 0.1
2018-Jan-28 19:28N 45°36' W 122°46'0 0.0
2018-Jan-28 18:58N 45°36' W 122°46'0 0.0
2018-Jan-28 18:28N 45°36' W 122°46'0 0.0
2018-Jan-28 17:49N 45°36' W 122°46'0 0.0
2018-Jan-28 17:28N 45°36' W 122°46'0 0.0
2018-Jan-28 16:58N 45°36' W 122°46'0 0.0
2018-Jan-28 16:28N 45°36' W 122°46'0 0.0
2018-Jan-28 15:58N 45°36' W 122°46'0 0.0
2018-Jan-28 15:28N 45°36' W 122°46'0 0.1
2018-Jan-28 14:40N 45°36' W 122°47'0 0.0
2018-Jan-28 14:10N 45°36' W 122°47'0 0.0
2018-Jan-28 13:58N 45°36' W 122°47'0 0.0
2018-Jan-28 13:31N 45°36' W 122°47'0 0.0
2018-Jan-28 12:58N 45°36' W 122°47'0 0.0
2018-Jan-28 12:22N 45°36' W 122°47'0 0.0
2018-Jan-28 11:55N 45°36' W 122°47'0 0.0
2018-Jan-28 11:22N 45°36' W 122°47'0 0.0
2018-Jan-28 10:58N 45°36' W 122°47'0 0.0
2018-Jan-28 10:28N 45°36' W 122°47'0 0.0
2018-Jan-28 09:58N 45°36' W 122°47'0 0.0
2018-Jan-28 09:22N 45°36' W 122°47'0 0.0
2018-Jan-28 08:55N 45°36' W 122°47'0 0.0
2018-Jan-28 08:25N 45°36' W 122°47'0 0.0
2018-Jan-28 07:58N 45°36' W 122°47'0 0.0
2018-Jan-28 07:13N 45°36' W 122°47'0 0.0
2018-Jan-28 07:01N 45°36' W 122°47'0 0.0
2018-Jan-28 06:25N 45°36' W 122°47'0 0.0
2018-Jan-28 05:52N 45°36' W 122°47'0 0.0
2018-Jan-28 05:25N 45°36' W 122°47'0 0.0
2018-Jan-28 04:55N 45°36' W 122°47'0 0.0
2018-Jan-28 04:28N 45°36' W 122°47'0 0.0
2018-Jan-28 03:58N 45°36' W 122°47'0 0.0
2018-Jan-28 03:22N 45°36' W 122°47'0 0.0
2018-Jan-28 02:58N 45°36' W 122°47'0 0.0
2018-Jan-28 02:25N 45°36' W 122°47'0 0.0
2018-Jan-28 01:58N 45°36' W 122°47'0 0.0
2018-Jan-28 01:28N 45°36' W 122°47'0 0.0
2018-Jan-28 00:55N 45°36' W 122°47'0 0.1
2018-Jan-28 00:13N 45°36' W 122°46'0 0.0
2018-Jan-27 23:58N 45°36' W 122°46'0 0.0
2018-Jan-27 23:28N 45°36' W 122°46'0 0.0
2018-Jan-27 22:58N 45°36' W 122°46'0 0.0
2018-Jan-27 22:28N 45°36' W 122°46'0 0.0
2018-Jan-27 21:58N 45°36' W 122°46'0 0.0
2018-Jan-27 21:28N 45°36' W 122°46'0 0.0
2018-Jan-27 20:58N 45°36' W 122°46'0 0.0
2018-Jan-27 20:28N 45°36' W 122°46'0 0.0
2018-Jan-27 19:58N 45°36' W 122°46'0 0.0
2018-Jan-27 19:28N 45°36' W 122°46'0 0.0
2018-Jan-27 18:58N 45°36' W 122°46'0 0.0
2018-Jan-27 18:31N 45°36' W 122°46'0 0.0
2018-Jan-27 17:07N 45°36' W 122°46'0 0.0
2018-Jan-27 16:43N 45°36' W 122°46'0 0.0
2018-Jan-27 16:28N 45°36' W 122°46'0 0.0
2018-Jan-27 15:58N 45°36' W 122°46'0 0.0
2018-Jan-27 15:22N 45°36' W 122°46'0 0.0
2018-Jan-27 14:52N 45°36' W 122°46'0 0.0
2018-Jan-27 14:25N 45°36' W 122°46'0 0.0
2018-Jan-27 14:01N 45°36' W 122°46'0 0.0
2018-Jan-27 13:19N 45°36' W 122°46'0 0.0
2018-Jan-27 12:58N 45°36' W 122°46'0 0.0
2018-Jan-27 12:28N 45°36' W 122°46'0 0.0
2018-Jan-27 11:55N 45°36' W 122°46'0 0.0
2018-Jan-27 11:28N 45°36' W 122°46'0 0.0
2018-Jan-27 10:52N 45°36' W 122°46'0 0.0
2018-Jan-27 10:28N 45°36' W 122°46'0 0.0
2018-Jan-27 09:58N 45°36' W 122°46'0 0.0
2018-Jan-27 09:25N 45°36' W 122°46'0 0.0
2018-Jan-27 08:58N 45°36' W 122°46'0 0.0
2018-Jan-27 08:19N 45°36' W 122°46'0 0.0
2018-Jan-27 08:01N 45°36' W 122°46'0 0.0
2018-Jan-27 07:25N 45°36' W 122°46'0 0.0
2018-Jan-27 06:55N 45°36' W 122°46'0 0.0
2018-Jan-27 06:01N 45°36' W 122°46'0 0.0
2018-Jan-27 05:52N 45°36' W 122°46'0 0.0
2018-Jan-27 05:28N 45°36' W 122°46'0 0.0
2018-Jan-27 05:01N 45°36' W 122°46'0 0.0
2018-Jan-27 04:28N 45°36' W 122°46'0 0.0
2018-Jan-27 03:43N 45°36' W 122°46'0 0.0
2018-Jan-27 03:28N 45°36' W 122°46'0 0.0
2018-Jan-27 02:55N 45°36' W 122°46'0 0.0
2018-Jan-27 02:31N 45°36' W 122°46'0 0.0
2018-Jan-27 01:43N 45°36' W 122°46'0 0.0
2018-Jan-27 01:25N 45°36' W 122°46'0 0.0
2018-Jan-27 00:37N 45°36' W 122°46'0 0.0
2018-Jan-27 00:22N 45°36' W 122°46'0 0.1
2018-Jan-26 23:35N 45°36' W 122°47'0 1.0
2018-Jan-26 23:30N 45°36' W 122°47'2 4.6
2018-Jan-26 23:00N 45°38' W 122°47'3 5.9
2018-Jan-26 22:28N 45°41' W 122°46'0 0.1
2018-Jan-26 21:58N 45°42' W 122°46'0 0.1
2018-Jan-26 21:28N 45°42' W 122°46'0 0.1
2018-Jan-26 20:58N 45°42' W 122°46'0 0.0
2018-Jan-26 20:28N 45°42' W 122°46'0 0.1
2018-Jan-26 19:58N 45°42' W 122°46'0 0.0
2018-Jan-26 19:28N 45°42' W 122°46'0 0.0
2018-Jan-26 18:58N 45°42' W 122°46'0 0.1
2018-Jan-26 18:28N 45°42' W 122°46'0 0.0
2018-Jan-26 17:58N 45°42' W 122°46'0 0.1
2018-Jan-26 17:25N 45°42' W 122°46'0 0.1
2018-Jan-26 16:58N 45°42' W 122°46'0 0.1
2018-Jan-26 16:28N 45°42' W 122°46'0 0.0
2018-Jan-26 15:58N 45°42' W 122°46'0 0.0
2018-Jan-26 15:28N 45°42' W 122°46'0 0.1
2018-Jan-26 14:58N 45°42' W 122°46'0 0.0
2018-Jan-26 14:28N 45°42' W 122°46'0 0.0
2018-Jan-26 13:58N 45°42' W 122°46'0 0.1
2018-Jan-26 13:28N 45°42' W 122°46'0 0.1
2018-Jan-26 12:58N 45°42' W 122°46'0 0.1
2018-Jan-26 12:25N 45°42' W 122°46'0 0.1
2018-Jan-26 11:58N 45°42' W 122°46'0 0.0
2018-Jan-26 11:28N 45°42' W 122°46'0 0.0
2018-Jan-26 10:58N 45°42' W 122°46'0 0.0
2018-Jan-26 10:28N 45°42' W 122°46'0 0.0
2018-Jan-26 09:58N 45°42' W 122°46'0 0.1
2018-Jan-26 09:28N 45°42' W 122°46'0 0.1
2018-Jan-26 08:58N 45°42' W 122°46'0 0.0
2018-Jan-26 08:25N 45°42' W 122°46'0 0.1
2018-Jan-26 07:58N 45°42' W 122°46'0 0.1
2018-Jan-26 07:25N 45°42' W 122°46'0 0.0
2018-Jan-26 06:58N 45°42' W 122°46'0 0.0
2018-Jan-26 06:25N 45°42' W 122°46'0 0.1
2018-Jan-26 05:55N 45°42' W 122°46'0 0.1
2018-Jan-26 05:28N 45°42' W 122°46'0 0.0
2018-Jan-26 04:58N 45°42' W 122°46'0 0.0
2018-Jan-26 04:28N 45°42' W 122°46'0 0.0
2018-Jan-26 03:58N 45°42' W 122°46'0 0.0
2018-Jan-26 03:28N 45°42' W 122°46'0 0.0
2018-Jan-26 02:58N 45°42' W 122°46'0 0.0
2018-Jan-26 02:28N 45°42' W 122°46'0 0.1
2018-Jan-26 01:58N 45°42' W 122°46'0 0.0
2018-Jan-26 01:28N 45°42' W 122°46'0 0.1
2018-Jan-26 00:58N 45°42' W 122°46'0 0.0
2018-Jan-26 00:28N 45°42' W 122°46'0 0.1
2018-Jan-25 23:58N 45°42' W 122°46'0 0.0
2018-Jan-25 23:28N 45°42' W 122°46'0 0.0
2018-Jan-25 22:58N 45°42' W 122°46'0 0.0
2018-Jan-25 22:28N 45°42' W 122°46'0 0.0
2018-Jan-25 21:58N 45°42' W 122°46'0 0.1
2018-Jan-25 21:25N 45°42' W 122°46'0 0.1
2018-Jan-25 20:58N 45°42' W 122°46'0 0.0
2018-Jan-25 20:28N 45°42' W 122°46'0 0.0
2018-Jan-25 19:55N 45°42' W 122°46'0 0.0
2018-Jan-25 19:28N 45°42' W 122°46'0 0.1
2018-Jan-25 18:58N 45°42' W 122°46'0 0.0
2018-Jan-25 18:28N 45°42' W 122°46'0 0.1
2018-Jan-25 17:58N 45°42' W 122°46'0 0.0
2018-Jan-25 17:25N 45°42' W 122°46'0 0.0
2018-Jan-25 16:58N 45°42' W 122°46'0 0.0
2018-Jan-25 16:25N 45°42' W 122°46'0 0.0
2018-Jan-25 15:55N 45°42' W 122°46'0 0.0
2018-Jan-25 15:25N 45°42' W 122°46'0 0.0
2018-Jan-25 14:52N 45°42' W 122°46'0 0.0
2018-Jan-25 14:25N 45°42' W 122°46'0 0.0
2018-Jan-25 13:58N 45°42' W 122°46'0 0.0
2018-Jan-25 13:25N 45°42' W 122°46'0 0.0
2018-Jan-25 12:58N 45°42' W 122°46'0 0.0
2018-Jan-25 12:25N 45°42' W 122°46'0 0.1
2018-Jan-25 11:58N 45°42' W 122°46'0 0.0
2018-Jan-25 11:28N 45°42' W 122°46'0 0.1
2018-Jan-25 10:55N 45°42' W 122°46'0 0.1
2018-Jan-25 10:28N 45°42' W 122°46'0 0.1
2018-Jan-25 09:55N 45°42' W 122°46'0 0.0
2018-Jan-25 09:28N 45°42' W 122°46'0 0.0
2018-Jan-25 08:58N 45°42' W 122°46'0 0.0
2018-Jan-25 08:28N 45°42' W 122°46'0 0.0
2018-Jan-25 07:58N 45°42' W 122°46'0 0.0
2018-Jan-25 07:28N 45°42' W 122°46'0 0.0
2018-Jan-25 06:58N 45°42' W 122°46'0 0.0
2018-Jan-25 06:28N 45°42' W 122°46'0 0.0
2018-Jan-25 05:55N 45°42' W 122°46'0 0.0
2018-Jan-25 05:28N 45°42' W 122°46'0 0.0
2018-Jan-25 04:52N 45°42' W 122°46'0 0.0
2018-Jan-25 04:25N 45°42' W 122°46'0 0.0
2018-Jan-25 03:58N 45°42' W 122°46'0 0.0
2018-Jan-25 03:28N 45°42' W 122°46'0 0.0
2018-Jan-25 02:58N 45°42' W 122°46'0 0.0
2018-Jan-25 02:19N 45°42' W 122°46'0 0.0
2018-Jan-25 01:58N 45°42' W 122°46'0 0.1
2018-Jan-25 01:28N 45°42' W 122°46'0 0.0
2018-Jan-25 00:58N 45°42' W 122°46'0 0.1
2018-Jan-25 00:25N 45°42' W 122°46'0 0.0
2018-Jan-24 23:55N 45°42' W 122°46'0 0.0
2018-Jan-24 23:28N 45°42' W 122°46'0 0.0
2018-Jan-24 22:58N 45°42' W 122°46'0 0.0
2018-Jan-24 22:28N 45°42' W 122°46'0 0.0
2018-Jan-24 21:58N 45°42' W 122°46'0 0.0
2018-Jan-24 21:28N 45°42' W 122°46'0 0.0
2018-Jan-24 20:58N 45°42' W 122°46'0 0.0
2018-Jan-24 20:28N 45°42' W 122°46'0 0.0
2018-Jan-24 19:58N 45°42' W 122°46'0 0.0
2018-Jan-24 19:19N 45°42' W 122°46'0 0.0
2018-Jan-24 18:58N 45°42' W 122°46'0 0.0
2018-Jan-24 18:28N 45°42' W 122°46'0 0.0
2018-Jan-24 17:58N 45°42' W 122°46'0 0.0
2018-Jan-24 17:28N 45°42' W 122°46'0 0.0
2018-Jan-24 16:58N 45°42' W 122°46'0 0.0
2018-Jan-24 16:28N 45°42' W 122°46'0 0.1
2018-Jan-24 15:58N 45°42' W 122°46'0 0.0
2018-Jan-24 15:28N 45°42' W 122°46'0 0.0
2018-Jan-24 14:58N 45°42' W 122°46'0 0.1
2018-Jan-24 14:25N 45°42' W 122°46'0 0.0
2018-Jan-24 13:58N 45°42' W 122°46'0 0.0
2018-Jan-24 13:28N 45°42' W 122°46'0 0.0
2018-Jan-24 12:55N 45°42' W 122°46'0 0.0
2018-Jan-24 12:25N 45°42' W 122°46'0 0.0
2018-Jan-24 11:58N 45°42' W 122°46'0 0.0
2018-Jan-24 11:25N 45°42' W 122°46'0 0.0
2018-Jan-24 10:55N 45°42' W 122°46'0 0.0
2018-Jan-24 10:25N 45°42' W 122°46'0 0.0
2018-Jan-24 09:58N 45°42' W 122°46'0 0.0
2018-Jan-24 09:28N 45°42' W 122°46'0 0.1
2018-Jan-24 08:58N 45°42' W 122°46'0 0.1
2018-Jan-24 08:28N 45°42' W 122°46'0 0.0
2018-Jan-24 07:55N 45°42' W 122°46'0 0.0
2018-Jan-24 07:25N 45°42' W 122°46'0 0.0
2018-Jan-24 06:58N 45°42' W 122°46'0 0.0
2018-Jan-24 06:25N 45°42' W 122°46'0 0.0
2018-Jan-24 05:58N 45°42' W 122°46'0 0.0
2018-Jan-24 05:28N 45°42' W 122°46'0 0.0
2018-Jan-24 04:55N 45°42' W 122°46'0 0.0
2018-Jan-24 04:28N 45°42' W 122°46'0 0.0
2018-Jan-24 03:58N 45°42' W 122°46'0 0.0
2018-Jan-24 03:28N 45°42' W 122°46'0 0.0
2018-Jan-24 02:58N 45°42' W 122°46'0 0.1
2018-Jan-24 02:28N 45°42' W 122°46'0 0.0
2018-Jan-24 01:58N 45°42' W 122°46'0 0.0
2018-Jan-24 01:28N 45°42' W 122°46'0 0.1
2018-Jan-24 00:58N 45°42' W 122°46'0 0.0
2018-Jan-24 00:28N 45°42' W 122°46'0 0.1
2018-Jan-23 23:58N 45°42' W 122°46'0 0.0
2018-Jan-23 23:28N 45°42' W 122°46'0 0.1
2018-Jan-23 22:58N 45°42' W 122°46'0 0.0
2018-Jan-23 22:28N 45°42' W 122°46'0 0.1
2018-Jan-23 21:58N 45°42' W 122°46'0 0.1
2018-Jan-23 21:28N 45°42' W 122°46'0 0.0
2018-Jan-23 20:58N 45°42' W 122°46'0 0.0
2018-Jan-23 20:28N 45°42' W 122°46'0 0.0
2018-Jan-23 19:58N 45°42' W 122°46'0 0.0
2018-Jan-23 19:25N 45°42' W 122°46'0 0.0
2018-Jan-23 18:58N 45°42' W 122°46'0 0.0
2018-Jan-23 18:28N 45°42' W 122°46'0 0.0
2018-Jan-23 17:55N 45°42' W 122°46'0 0.0
2018-Jan-23 17:25N 45°42' W 122°46'0 0.2
2018-Jan-23 17:01N 45°41' W 122°46'2 4.4
2018-Jan-23 16:31N 45°44' W 122°46'611.4
2018-Jan-23 16:00N 45°49' W 122°48'611.1
2018-Jan-23 15:30N 45°55' W 122°49'510.9
2018-Jan-23 15:01N 45°60' W 122°51'510.1
2018-Jan-23 14:30N 46°05' W 122°54'5 9.8
2018-Jan-23 14:00N 46°07' W 122°59'611.5
2018-Jan-23 13:30N 46°11' W 123°06'611.2
2018-Jan-23 13:00N 46°10' W 123°14'611.7
2018-Jan-23 12:30N 46°09' W 123°23'510.5
2018-Jan-23 12:00N 46°14' W 123°26'510.6
2018-Jan-23 11:30N 46°16' W 123°33'613.0
2018-Jan-23 11:00N 46°15' W 123°42'611.8
2018-Jan-23 10:31N 46°12' W 123°49'510.0
2018-Jan-23 10:00N 46°12' W 123°57'612.6
2018-Jan-23 09:30N 46°16' W 124°04'611.7
2018-Jan-23 09:00N 46°12' W 124°11'5 8.5
2018-Jan-23 08:22N 46°08' W 124°17'3 8.9
2018-Jan-23 08:00N 46°05' W 124°17'1 2.8
2018-Jan-23 07:30N 46°04' W 124°17'1 1.5
2018-Jan-23 07:00N 46°03' W 124°18'1 1.3
2018-Jan-23 06:15N 46°02' W 124°18'1 5.5
2018-Jan-23 06:00N 46°02' W 124°16'4 8.9
2018-Jan-23 05:31N 46°03' W 124°10'0 0.5
2018-Jan-23 04:53N 46°03' W 124°10'1 1.6
2018-Jan-23 04:27N 46°02' W 124°11'1 1.3
2018-Jan-23 04:01N 46°02' W 124°11'0 0.9
2018-Jan-23 03:30N 46°02' W 124°12'1 1.3
2018-Jan-23 03:00N 46°02' W 124°13'1 1.2
2018-Jan-23 02:30N 46°02' W 124°14'1 1.2
2018-Jan-23 01:57N 46°01' W 124°15'  
Track history (hours):
 
Tides and Currents Weather Stations Pressure Air Temp Water Temp Dewpoint Dewpoint Depression Visibility Wind Speed Wind Dir Waves Ship Positions

Four Emerald

Last reported at 2018-Jan-31 22:03 UTC. Time now 2018-Feb-21 11:50 UTC.
Position N 48°25' W 125°20'.
Warning: this ship's position is 20 days out of date.

Length 180 m; draft 10.2 m.

Type: Cargo ship. MMSI: 248502000.

Date/timePositionNaut miles runAvg speedWind from/ knotsBaromVisibWave heightAir tempDewpointWater temp
2018-Jan-31 22:03N 48°25' W 125°20'10 9.2
2018-Jan-31 20:59N 48°31' W 125°07'510.0
2018-Jan-31 20:30N 48°31' W 124°60'5 9.4
2018-Jan-31 20:00N 48°31' W 124°53'510.0
2018-Jan-31 19:31N 48°31' W 124°45'5 9.8
2018-Jan-31 19:00N 48°29' W 124°38'510.8
2018-Jan-31 18:30N 48°27' W 124°31'611.3
2018-Jan-31 18:00N 48°25' W 124°23'611.6
2018-Jan-31 17:30N 48°23' W 124°15'612.0
2018-Jan-31 16:59N 48°20' W 124°06'612.1
2018-Jan-31 16:30N 48°18' W 123°58'613.0
2018-Jan-31 16:00N 48°17' W 123°48'612.7
2018-Jan-31 15:30N 48°16' W 123°39'612.7
2018-Jan-31 15:00N 48°14' W 123°30'610.9
2018-Jan-31 14:29N 48°10' W 123°24'3 1.8
2018-Jan-31 12:58N 48°08' W 123°26'0 0.0
2018-Jan-31 12:25N 48°08' W 123°26'0 0.1
2018-Jan-31 11:55N 48°08' W 123°26'0 0.0
2018-Jan-31 11:28N 48°08' W 123°26'0 0.0
2018-Jan-31 10:58N 48°08' W 123°26'0 0.0
2018-Jan-31 10:28N 48°08' W 123°26'0 0.0
2018-Jan-31 09:58N 48°08' W 123°26'0 0.1
2018-Jan-31 09:28N 48°08' W 123°26'0 0.0
2018-Jan-31 08:58N 48°08' W 123°26'0 0.0
2018-Jan-31 08:28N 48°08' W 123°26'0 0.0
2018-Jan-31 07:52N 48°08' W 123°26'0 0.1
2018-Jan-31 07:28N 48°08' W 123°26'0 0.0
2018-Jan-31 06:55N 48°08' W 123°26'0 0.1
2018-Jan-31 06:28N 48°08' W 123°26'0 0.0
2018-Jan-31 05:58N 48°08' W 123°26'0 0.0
2018-Jan-31 05:25N 48°08' W 123°26'0 0.1
2018-Jan-31 04:49N 48°08' W 123°26'0 0.0
2018-Jan-30 15:40N 48°08' W 123°26'0 0.1
2018-Jan-30 15:16N 48°08' W 123°26'0 0.0
2018-Jan-30 14:58N 48°08' W 123°26'0 0.1
2018-Jan-30 14:28N 48°08' W 123°26'0 0.0
2018-Jan-30 13:25N 48°08' W 123°26'0 0.1
2018-Jan-30 12:58N 48°08' W 123°26'0 0.1
2018-Jan-30 12:28N 48°08' W 123°26'0 0.0
2018-Jan-30 11:55N 48°08' W 123°26'0 0.1
2018-Jan-30 11:22N 48°08' W 123°26'2 2.9
2018-Jan-30 10:30N 48°09' W 123°22'9 9.0
2018-Jan-30 09:30N 48°13' W 123°34'714.2
2018-Jan-30 09:00N 48°13' W 123°45'714.2
2018-Jan-30 08:29N 48°14' W 123°56'713.7
2018-Jan-30 08:00N 48°16' W 124°05'713.4
2018-Jan-30 07:30N 48°19' W 124°14'713.2
2018-Jan-30 07:00N 48°22' W 124°23'612.8
2018-Jan-30 06:30N 48°25' W 124°32'611.8
2018-Jan-30 06:00N 48°27' W 124°40'511.0
2018-Jan-30 05:30N 48°29' W 124°48'510.0
2018-Jan-30 05:00N 48°29' W 124°55'5 9.5
2018-Jan-30 04:30N 48°26' W 125°02'510.8
2018-Jan-30 04:00N 48°21' W 125°05'611.0
2018-Jan-30 03:25N 48°15' W 125°09'511.3
2018-Jan-30 03:00N 48°11' W 125°11'611.4
2018-Jan-30 02:29N 48°06' W 125°14'6910.2
2018-Jan-29 19:42N 46°57' W 124°57'211.1
2018-Jan-29 19:30N 46°55' W 124°56'610.8
2018-Jan-29 18:55N 46°50' W 124°51'410.8
2018-Jan-29 18:30N 46°46' W 124°48'511.0
2018-Jan-29 18:00N 46°41' W 124°43'711.0
2018-Jan-29 17:22N 46°36' W 124°38'411.0
2018-Jan-29 17:00N 46°32' W 124°34'511.0
2018-Jan-29 16:30N 46°28' W 124°29'611.3
2018-Jan-29 16:00N 46°23' W 124°25'510.7
2018-Jan-29 15:30N 46°19' W 124°20'611.0
2018-Jan-29 15:00N 46°15' W 124°15'510.1
2018-Jan-29 14:30N 46°12' W 124°09'3 6.5
2018-Jan-29 14:00N 46°14' W 124°06'5 9.5
2018-Jan-29 13:30N 46°14' W 123°60'611.9
2018-Jan-29 13:00N 46°12' W 123°52'510.1
2018-Jan-29 12:30N 46°13' W 123°45'713.5
2018-Jan-29 12:00N 46°15' W 123°36'612.6
2018-Jan-29 11:31N 46°15' W 123°27'612.6
2018-Jan-29 11:00N 46°09' W 123°24'713.1
2018-Jan-29 10:31N 46°10' W 123°14'612.4
2018-Jan-29 10:00N 46°10' W 123°05'713.4
2018-Jan-29 09:30N 46°06' W 122°58'710.6
2018-Jan-29 08:50N 46°01' W 122°51'412.5
2018-Jan-29 08:31N 45°57' W 122°48'713.6
2018-Jan-29 08:00N 45°50' W 122°47'713.2
2018-Jan-29 07:31N 45°44' W 122°46'611.1
2018-Jan-29 07:00N 45°38' W 122°47'2 3.5
2018-Jan-29 06:22N 45°36' W 122°47'0 0.0
2018-Jan-29 05:52N 45°36' W 122°47'0 0.0
2018-Jan-29 05:28N 45°36' W 122°47'0 0.0
2018-Jan-29 04:58N 45°36' W 122°47'0 0.0
2018-Jan-29 04:04N 45°36' W 122°47'0 0.0
2018-Jan-29 03:58N 45°36' W 122°47'0 0.1
2018-Jan-29 03:22N 45°36' W 122°46'0 0.0
2018-Jan-29 02:49N 45°36' W 122°46'0 0.0
2018-Jan-29 02:31N 45°36' W 122°46'0 0.0
2018-Jan-29 01:52N 45°36' W 122°46'0 0.0
2018-Jan-29 01:25N 45°36' W 122°46'0 0.0
2018-Jan-29 00:46N 45°36' W 122°46'0 0.0
2018-Jan-29 00:25N 45°36' W 122°46'0 0.0
2018-Jan-28 23:58N 45°36' W 122°46'0 0.0
2018-Jan-28 23:04N 45°36' W 122°47'0 0.0
2018-Jan-28 22:58N 45°36' W 122°47'0 0.0
2018-Jan-28 22:25N 45°36' W 122°47'0 0.0
2018-Jan-28 21:55N 45°36' W 122°47'0 0.0
2018-Jan-28 21:19N 45°36' W 122°47'0 0.0
2018-Jan-28 20:40N 45°36' W 122°47'0 0.0
2018-Jan-28 20:28N 45°36' W 122°47'0 0.0
2018-Jan-28 19:58N 45°36' W 122°47'0 0.1
2018-Jan-28 19:28N 45°36' W 122°46'0 0.0
2018-Jan-28 18:58N 45°36' W 122°46'0 0.0
2018-Jan-28 18:28N 45°36' W 122°46'0 0.0
2018-Jan-28 17:49N 45°36' W 122°46'0 0.0
2018-Jan-28 17:28N 45°36' W 122°46'0 0.0
2018-Jan-28 16:58N 45°36' W 122°46'0 0.0
2018-Jan-28 16:28N 45°36' W 122°46'0 0.0
2018-Jan-28 15:58N 45°36' W 122°46'0 0.0
2018-Jan-28 15:28N 45°36' W 122°46'0 0.1
2018-Jan-28 14:40N 45°36' W 122°47'0 0.0
2018-Jan-28 14:10N 45°36' W 122°47'0 0.0
2018-Jan-28 13:58N 45°36' W 122°47'0 0.0
2018-Jan-28 13:31N 45°36' W 122°47'0 0.0
2018-Jan-28 12:58N 45°36' W 122°47'0 0.0
2018-Jan-28 12:22N 45°36' W 122°47'0 0.0
2018-Jan-28 11:55N 45°36' W 122°47'0 0.0
2018-Jan-28 11:22N 45°36' W 122°47'0 0.0
2018-Jan-28 10:58N 45°36' W 122°47'0 0.0
2018-Jan-28 10:28N 45°36' W 122°47'0 0.0
2018-Jan-28 09:58N 45°36' W 122°47'0 0.0
2018-Jan-28 09:22N 45°36' W 122°47'0 0.0
2018-Jan-28 08:55N 45°36' W 122°47'0 0.0
2018-Jan-28 08:25N 45°36' W 122°47'0 0.0
2018-Jan-28 07:58N 45°36' W 122°47'0 0.0
2018-Jan-28 07:13N 45°36' W 122°47'0 0.0
2018-Jan-28 07:01N 45°36' W 122°47'0 0.0
2018-Jan-28 06:25N 45°36' W 122°47'0 0.0
2018-Jan-28 05:52N 45°36' W 122°47'0 0.0
2018-Jan-28 05:25N 45°36' W 122°47'0 0.0
2018-Jan-28 04:55N 45°36' W 122°47'0 0.0
2018-Jan-28 04:28N 45°36' W 122°47'0 0.0
2018-Jan-28 03:58N 45°36' W 122°47'0 0.0
2018-Jan-28 03:22N 45°36' W 122°47'0 0.0
2018-Jan-28 02:58N 45°36' W 122°47'0 0.0
2018-Jan-28 02:25N 45°36' W 122°47'0 0.0
2018-Jan-28 01:58N 45°36' W 122°47'0 0.0
2018-Jan-28 01:28N 45°36' W 122°47'0 0.0
2018-Jan-28 00:55N 45°36' W 122°47'0 0.1
2018-Jan-28 00:13N 45°36' W 122°46'0 0.0
2018-Jan-27 23:58N 45°36' W 122°46'0 0.0
2018-Jan-27 23:28N 45°36' W 122°46'0 0.0
2018-Jan-27 22:58N 45°36' W 122°46'0 0.0
2018-Jan-27 22:28N 45°36' W 122°46'0 0.0
2018-Jan-27 21:58N 45°36' W 122°46'0 0.0
2018-Jan-27 21:28N 45°36' W 122°46'0 0.0
2018-Jan-27 20:58N 45°36' W 122°46'0 0.0
2018-Jan-27 20:28N 45°36' W 122°46'0 0.0
2018-Jan-27 19:58N 45°36' W 122°46'0 0.0
2018-Jan-27 19:28N 45°36' W 122°46'0 0.0
2018-Jan-27 18:58N 45°36' W 122°46'0 0.0
2018-Jan-27 18:31N 45°36' W 122°46'0 0.0
2018-Jan-27 17:07N 45°36' W 122°46'0 0.0
2018-Jan-27 16:43N 45°36' W 122°46'0 0.0
2018-Jan-27 16:28N 45°36' W 122°46'0 0.0
2018-Jan-27 15:58N 45°36' W 122°46'0 0.0
2018-Jan-27 15:22N 45°36' W 122°46'0 0.0
2018-Jan-27 14:52N 45°36' W 122°46'0 0.0
2018-Jan-27 14:25N 45°36' W 122°46'0 0.0
2018-Jan-27 14:01N 45°36' W 122°46'0 0.0
2018-Jan-27 13:19N 45°36' W 122°46'0 0.0
2018-Jan-27 12:58N 45°36' W 122°46'0 0.0
2018-Jan-27 12:28N 45°36' W 122°46'0 0.0
2018-Jan-27 11:55N 45°36' W 122°46'0 0.0
2018-Jan-27 11:28N 45°36' W 122°46'0 0.0
2018-Jan-27 10:52N 45°36' W 122°46'0 0.0
2018-Jan-27 10:28N 45°36' W 122°46'0 0.0
2018-Jan-27 09:58N 45°36' W 122°46'0 0.0
2018-Jan-27 09:25N 45°36' W 122°46'0 0.0
2018-Jan-27 08:58N 45°36' W 122°46'0 0.0
2018-Jan-27 08:19N 45°36' W 122°46'0 0.0
2018-Jan-27 08:01N 45°36' W 122°46'0 0.0
2018-Jan-27 07:25N 45°36' W 122°46'0 0.0
2018-Jan-27 06:55N 45°36' W 122°46'0 0.0
2018-Jan-27 06:01N 45°36' W 122°46'0 0.0
2018-Jan-27 05:52N 45°36' W 122°46'0 0.0
2018-Jan-27 05:28N 45°36' W 122°46'0 0.0
2018-Jan-27 05:01N 45°36' W 122°46'0 0.0
2018-Jan-27 04:28N 45°36' W 122°46'0 0.0
2018-Jan-27 03:43N 45°36' W 122°46'0 0.0
2018-Jan-27 03:28N 45°36' W 122°46'0 0.0
2018-Jan-27 02:55N 45°36' W 122°46'0 0.0
2018-Jan-27 02:31N 45°36' W 122°46'0 0.0
2018-Jan-27 01:43N 45°36' W 122°46'0 0.0
2018-Jan-27 01:25N 45°36' W 122°46'0 0.0
2018-Jan-27 00:37N 45°36' W 122°46'0 0.0
2018-Jan-27 00:22N 45°36' W 122°46'0 0.1
2018-Jan-26 23:35N 45°36' W 122°47'0 1.0
2018-Jan-26 23:30N 45°36' W 122°47'2 4.6
2018-Jan-26 23:00N 45°38' W 122°47'3 5.9
2018-Jan-26 22:28N 45°41' W 122°46'0 0.1
2018-Jan-26 21:58N 45°42' W 122°46'0 0.1
2018-Jan-26 21:28N 45°42' W 122°46'0 0.1
2018-Jan-26 20:58N 45°42' W 122°46'0 0.0
2018-Jan-26 20:28N 45°42' W 122°46'0 0.1
2018-Jan-26 19:58N 45°42' W 122°46'0 0.0
2018-Jan-26 19:28N 45°42' W 122°46'0 0.0
2018-Jan-26 18:58N 45°42' W 122°46'0 0.1
2018-Jan-26 18:28N 45°42' W 122°46'0 0.0
2018-Jan-26 17:58N 45°42' W 122°46'0 0.1
2018-Jan-26 17:25N 45°42' W 122°46'0 0.1
2018-Jan-26 16:58N 45°42' W 122°46'0 0.1
2018-Jan-26 16:28N 45°42' W 122°46'0 0.0
2018-Jan-26 15:58N 45°42' W 122°46'0 0.0
2018-Jan-26 15:28N 45°42' W 122°46'0 0.1
2018-Jan-26 14:58N 45°42' W 122°46'0 0.0
2018-Jan-26 14:28N 45°42' W 122°46'0 0.0
2018-Jan-26 13:58N 45°42' W 122°46'0 0.1
2018-Jan-26 13:28N 45°42' W 122°46'0 0.1
2018-Jan-26 12:58N 45°42' W 122°46'0 0.1
2018-Jan-26 12:25N 45°42' W 122°46'0 0.1
2018-Jan-26 11:58N 45°42' W 122°46'0 0.0
2018-Jan-26 11:28N 45°42' W 122°46'0 0.0
2018-Jan-26 10:58N 45°42' W 122°46'0 0.0
2018-Jan-26 10:28N 45°42' W 122°46'0 0.0
2018-Jan-26 09:58N 45°42' W 122°46'0 0.1
2018-Jan-26 09:28N 45°42' W 122°46'0 0.1
2018-Jan-26 08:58N 45°42' W 122°46'0 0.0
2018-Jan-26 08:25N 45°42' W 122°46'0 0.1
2018-Jan-26 07:58N 45°42' W 122°46'0 0.1
2018-Jan-26 07:25N 45°42' W 122°46'0 0.0
2018-Jan-26 06:58N 45°42' W 122°46'0 0.0
2018-Jan-26 06:25N 45°42' W 122°46'0 0.1
2018-Jan-26 05:55N 45°42' W 122°46'0 0.1
2018-Jan-26 05:28N 45°42' W 122°46'0 0.0
2018-Jan-26 04:58N 45°42' W 122°46'0 0.0
2018-Jan-26 04:28N 45°42' W 122°46'0 0.0
2018-Jan-26 03:58N 45°42' W 122°46'0 0.0
2018-Jan-26 03:28N 45°42' W 122°46'0 0.0
2018-Jan-26 02:58N 45°42' W 122°46'0 0.0
2018-Jan-26 02:28N 45°42' W 122°46'0 0.1
2018-Jan-26 01:58N 45°42' W 122°46'0 0.0
2018-Jan-26 01:28N 45°42' W 122°46'0 0.1
2018-Jan-26 00:58N 45°42' W 122°46'0 0.0
2018-Jan-26 00:28N 45°42' W 122°46'0 0.1
2018-Jan-25 23:58N 45°42' W 122°46'0 0.0
2018-Jan-25 23:28N 45°42' W 122°46'0 0.0
2018-Jan-25 22:58N 45°42' W 122°46'0 0.0
2018-Jan-25 22:28N 45°42' W 122°46'0 0.0
2018-Jan-25 21:58N 45°42' W 122°46'0 0.1
2018-Jan-25 21:25N 45°42' W 122°46'0 0.1
2018-Jan-25 20:58N 45°42' W 122°46'0 0.0
2018-Jan-25 20:28N 45°42' W 122°46'0 0.0
2018-Jan-25 19:55N 45°42' W 122°46'0 0.0
2018-Jan-25 19:28N 45°42' W 122°46'0 0.1
2018-Jan-25 18:58N 45°42' W 122°46'0 0.0
2018-Jan-25 18:28N 45°42' W 122°46'0 0.1
2018-Jan-25 17:58N 45°42' W 122°46'0 0.0
2018-Jan-25 17:25N 45°42' W 122°46'0 0.0
2018-Jan-25 16:58N 45°42' W 122°46'0 0.0
2018-Jan-25 16:25N 45°42' W 122°46'0 0.0
2018-Jan-25 15:55N 45°42' W 122°46'0 0.0
2018-Jan-25 15:25N 45°42' W 122°46'0 0.0
2018-Jan-25 14:52N 45°42' W 122°46'0 0.0
2018-Jan-25 14:25N 45°42' W 122°46'0 0.0
2018-Jan-25 13:58N 45°42' W 122°46'0 0.0
2018-Jan-25 13:25N 45°42' W 122°46'0 0.0
2018-Jan-25 12:58N 45°42' W 122°46'0 0.0
2018-Jan-25 12:25N 45°42' W 122°46'0 0.1
2018-Jan-25 11:58N 45°42' W 122°46'0 0.0
2018-Jan-25 11:28N 45°42' W 122°46'0 0.1
2018-Jan-25 10:55N 45°42' W 122°46'0 0.1
2018-Jan-25 10:28N 45°42' W 122°46'0 0.1
2018-Jan-25 09:55N 45°42' W 122°46'0 0.0
2018-Jan-25 09:28N 45°42' W 122°46'0 0.0
2018-Jan-25 08:58N 45°42' W 122°46'0 0.0
2018-Jan-25 08:28N 45°42' W 122°46'0 0.0
2018-Jan-25 07:58N 45°42' W 122°46'0 0.0
2018-Jan-25 07:28N 45°42' W 122°46'0 0.0
2018-Jan-25 06:58N 45°42' W 122°46'0 0.0
2018-Jan-25 06:28N 45°42' W 122°46'0 0.0
2018-Jan-25 05:55N 45°42' W 122°46'0 0.0
2018-Jan-25 05:28N 45°42' W 122°46'0 0.0
2018-Jan-25 04:52N 45°42' W 122°46'0 0.0
2018-Jan-25 04:25N 45°42' W 122°46'0 0.0
2018-Jan-25 03:58N 45°42' W 122°46'0 0.0
2018-Jan-25 03:28N 45°42' W 122°46'0 0.0
2018-Jan-25 02:58N 45°42' W 122°46'0 0.0
2018-Jan-25 02:19N 45°42' W 122°46'0 0.0
2018-Jan-25 01:58N 45°42' W 122°46'0 0.1
2018-Jan-25 01:28N 45°42' W 122°46'0 0.0
2018-Jan-25 00:58N 45°42' W 122°46'0 0.1
2018-Jan-25 00:25N 45°42' W 122°46'0 0.0
2018-Jan-24 23:55N 45°42' W 122°46'0 0.0
2018-Jan-24 23:28N 45°42' W 122°46'0 0.0
2018-Jan-24 22:58N 45°42' W 122°46'0 0.0
2018-Jan-24 22:28N 45°42' W 122°46'0 0.0
2018-Jan-24 21:58N 45°42' W 122°46'0 0.0
2018-Jan-24 21:28N 45°42' W 122°46'0 0.0
2018-Jan-24 20:58N 45°42' W 122°46'0 0.0
2018-Jan-24 20:28N 45°42' W 122°46'0 0.0
2018-Jan-24 19:58N 45°42' W 122°46'0 0.0
2018-Jan-24 19:19N 45°42' W 122°46'0 0.0
2018-Jan-24 18:58N 45°42' W 122°46'0 0.0
2018-Jan-24 18:28N 45°42' W 122°46'0 0.0
2018-Jan-24 17:58N 45°42' W 122°46'0 0.0
2018-Jan-24 17:28N 45°42' W 122°46'0 0.0
2018-Jan-24 16:58N 45°42' W 122°46'0 0.0
2018-Jan-24 16:28N 45°42' W 122°46'0 0.1
2018-Jan-24 15:58N 45°42' W 122°46'0 0.0
2018-Jan-24 15:28N 45°42' W 122°46'0 0.0
2018-Jan-24 14:58N 45°42' W 122°46'0 0.1
2018-Jan-24 14:25N 45°42' W 122°46'0 0.0
2018-Jan-24 13:58N 45°42' W 122°46'0 0.0
2018-Jan-24 13:28N 45°42' W 122°46'0 0.0
2018-Jan-24 12:55N 45°42' W 122°46'0 0.0
2018-Jan-24 12:25N 45°42' W 122°46'0 0.0
2018-Jan-24 11:58N 45°42' W 122°46'0 0.0
2018-Jan-24 11:25N 45°42' W 122°46'0 0.0
2018-Jan-24 10:55N 45°42' W 122°46'0 0.0
2018-Jan-24 10:25N 45°42' W 122°46'0 0.0
2018-Jan-24 09:58N 45°42' W 122°46'0 0.0
2018-Jan-24 09:28N 45°42' W 122°46'0 0.1
2018-Jan-24 08:58N 45°42' W 122°46'0 0.1
2018-Jan-24 08:28N 45°42' W 122°46'0 0.0
2018-Jan-24 07:55N 45°42' W 122°46'0 0.0
2018-Jan-24 07:25N 45°42' W 122°46'0 0.0
2018-Jan-24 06:58N 45°42' W 122°46'0 0.0
2018-Jan-24 06:25N 45°42' W 122°46'0 0.0
2018-Jan-24 05:58N 45°42' W 122°46'0 0.0
2018-Jan-24 05:28N 45°42' W 122°46'0 0.0
2018-Jan-24 04:55N 45°42' W 122°46'0 0.0
2018-Jan-24 04:28N 45°42' W 122°46'0 0.0
2018-Jan-24 03:58N 45°42' W 122°46'0 0.0
2018-Jan-24 03:28N 45°42' W 122°46'0 0.0
2018-Jan-24 02:58N 45°42' W 122°46'0 0.1
2018-Jan-24 02:28N 45°42' W 122°46'0 0.0
2018-Jan-24 01:58N 45°42' W 122°46'0 0.0
2018-Jan-24 01:28N 45°42' W 122°46'0 0.1
2018-Jan-24 00:58N 45°42' W 122°46'0 0.0
2018-Jan-24 00:28N 45°42' W 122°46'0 0.1
2018-Jan-23 23:58N 45°42' W 122°46'0 0.0
2018-Jan-23 23:28N 45°42' W 122°46'0 0.1
2018-Jan-23 22:58N 45°42' W 122°46'0 0.0
2018-Jan-23 22:28N 45°42' W 122°46'0 0.1
2018-Jan-23 21:58N 45°42' W 122°46'0 0.1
2018-Jan-23 21:28N 45°42' W 122°46'0 0.0
2018-Jan-23 20:58N 45°42' W 122°46'0 0.0
2018-Jan-23 20:28N 45°42' W 122°46'0 0.0
2018-Jan-23 19:58N 45°42' W 122°46'0 0.0
2018-Jan-23 19:25N 45°42' W 122°46'0 0.0
2018-Jan-23 18:58N 45°42' W 122°46'0 0.0
2018-Jan-23 18:28N 45°42' W 122°46'0 0.0
2018-Jan-23 17:55N 45°42' W 122°46'0 0.0
2018-Jan-23 17:25N 45°42' W 122°46'0 0.2
2018-Jan-23 17:01N 45°41' W 122°46'2 4.4
2018-Jan-23 16:31N 45°44' W 122°46'611.4
2018-Jan-23 16:00N 45°49' W 122°48'611.1
2018-Jan-23 15:30N 45°55' W 122°49'510.9
2018-Jan-23 15:01N 45°60' W 122°51'510.1
2018-Jan-23 14:30N 46°05' W 122°54'5 9.8
2018-Jan-23 14:00N 46°07' W 122°59'611.5
2018-Jan-23 13:30N 46°11' W 123°06'611.2
2018-Jan-23 13:00N 46°10' W 123°14'611.7
2018-Jan-23 12:30N 46°09' W 123°23'510.5
2018-Jan-23 12:00N 46°14' W 123°26'510.6
2018-Jan-23 11:30N 46°16' W 123°33'613.0
2018-Jan-23 11:00N 46°15' W 123°42'611.8
2018-Jan-23 10:31N 46°12' W 123°49'510.0
2018-Jan-23 10:00N 46°12' W 123°57'612.6
2018-Jan-23 09:30N 46°16' W 124°04'611.7
2018-Jan-23 09:00N 46°12' W 124°11'5 8.5
2018-Jan-23 08:22N 46°08' W 124°17'3 8.9
2018-Jan-23 08:00N 46°05' W 124°17'1 2.8
2018-Jan-23 07:30N 46°04' W 124°17'1 1.5
2018-Jan-23 07:00N 46°03' W 124°18'1 1.3
2018-Jan-23 06:15N 46°02' W 124°18'1 5.5
2018-Jan-23 06:00N 46°02' W 124°16'4 8.9
2018-Jan-23 05:31N 46°03' W 124°10'0 0.5
2018-Jan-23 04:53N 46°03' W 124°10'1 1.6
2018-Jan-23 04:27N 46°02' W 124°11'1 1.3
2018-Jan-23 04:01N 46°02' W 124°11'0 0.9
2018-Jan-23 03:30N 46°02' W 124°12'1 1.3
2018-Jan-23 03:00N 46°02' W 124°13'1 1.2
2018-Jan-23 02:30N 46°02' W 124°14'1 1.2
2018-Jan-23 01:57N 46°01' W 124°15'  

Dump ship's entire track history